Dream Island — 3EWU7 — position and weather

sailwx.info

Track history (hours):
 
Tides and Currents Weather Stations Pressure Air Temp Water Temp Dewpoint Dewpoint Depression Visibility Wind Speed Wind Dir Waves Ship Positions

Dream Island

Last reported at 2017-Nov-23 23:54 UTC. Time now 2017-Dec-13 07:16 UTC.
Position N 49°11' W 126°36'.
Warning: this ship's position is 19 days out of date.

Length 180 m; draft 10.6 m.

Type: Cargo ship. MMSI: 374721000.

Date/timePositionNaut miles runAvg speedWind from/ knotsBaromVisibWave heightAir tempDewpointWater temp
2017-Nov-23 23:54N 49°11' W 126°36'410.4
2017-Nov-23 23:30N 49°08' W 126°31'510.7
2017-Nov-23 23:00N 49°05' W 126°25'510.8
2017-Nov-23 22:30N 49°01' W 126°20'4 8.8
2017-Nov-23 22:00N 48°60' W 126°13'5 9.7
2017-Nov-23 21:30N 48°58' W 126°06'5 9.6
2017-Nov-23 21:00N 48°56' W 125°60'4 9.0
2017-Nov-23 20:30N 48°55' W 125°53'5 9.2
2017-Nov-23 20:00N 48°54' W 125°46'5 9.1
2017-Nov-23 19:30N 48°52' W 125°40'5 9.5
2017-Nov-23 19:00N 48°50' W 125°33'510.1
2017-Nov-23 18:30N 48°47' W 125°27'510.3
2017-Nov-23 18:00N 48°44' W 125°21'510.2
2017-Nov-23 17:30N 48°41' W 125°15'510.7
2017-Nov-23 17:00N 48°38' W 125°08'510.7
2017-Nov-23 16:30N 48°35' W 125°02'510.4
2017-Nov-23 16:00N 48°31' W 124°55'4 8.7
2017-Nov-23 15:30N 48°31' W 124°49'4 8.1
2017-Nov-23 15:00N 48°30' W 124°43'4 8.1
2017-Nov-23 14:30N 48°29' W 124°37'4 7.7
2017-Nov-23 14:00N 48°27' W 124°32'4 8.2
2017-Nov-23 13:30N 48°26' W 124°26'4 9.0
2017-Nov-23 13:00N 48°24' W 124°20'5 9.2
2017-Nov-23 12:30N 48°22' W 124°13'5 9.0
2017-Nov-23 12:00N 48°20' W 124°07'5 9.6
2017-Nov-23 11:30N 48°19' W 124°00'5 9.6
2017-Nov-23 10:59N 48°17' W 123°53'4 9.3
2017-Nov-23 10:30N 48°16' W 123°47'5 9.8
2017-Nov-23 10:00N 48°16' W 123°39'510.6
2017-Nov-23 09:30N 48°15' W 123°31'510.4
2017-Nov-23 09:00N 48°20' W 123°27'4 8.9
2017-Nov-23 08:30N 48°23' W 123°23'4 8.0
2017-Nov-23 08:00N 48°23' W 123°17'612.1
2017-Nov-23 07:30N 48°28' W 123°12'815.4
2017-Nov-23 07:00N 48°36' W 123°14'713.7
2017-Nov-23 06:30N 48°43' W 123°14'714.7
2017-Nov-23 06:00N 48°46' W 123°04'510.4
2017-Nov-23 05:30N 48°51' W 123°03'815.0
2017-Nov-23 04:58N 48°57' W 123°12'714.1
2017-Nov-23 04:29N 49°01' W 123°20'5 9.5
2017-Nov-23 04:00N 49°06' W 123°19'5 9.8
2017-Nov-23 03:30N 49°08' W 123°12'611.3
2017-Nov-23 03:00N 49°08' W 123°04'510.2
2017-Nov-23 02:30N 49°10' W 122°56'2 3.7
2017-Nov-23 02:00N 49°11' W 122°55'0 0.4
2017-Nov-23 01:30N 49°11' W 122°55'0 0.0
2017-Nov-23 01:00N 49°11' W 122°55'0 0.0
2017-Nov-23 00:30N 49°11' W 122°55'0 0.0
2017-Nov-22 23:57N 49°11' W 122°55'0 0.0
2017-Nov-22 23:30N 49°11' W 122°55'0 0.0
2017-Nov-22 23:00N 49°11' W 122°55'0 0.0
2017-Nov-22 22:30N 49°11' W 122°55'0 0.0
2017-Nov-22 22:00N 49°11' W 122°55'0 0.0
2017-Nov-22 21:30N 49°11' W 122°55'0 0.0
2017-Nov-22 21:00N 49°11' W 122°55'0 0.0
2017-Nov-22 20:30N 49°11' W 122°55'0 0.0
2017-Nov-22 20:00N 49°11' W 122°55'0 0.0
2017-Nov-22 19:30N 49°11' W 122°55'  
2017-Nov-20 00:30N 49°11' W 122°55'0 0.0
2017-Nov-20 00:00N 49°11' W 122°55'0 0.0
2017-Nov-19 23:30N 49°11' W 122°55'0 0.0
2017-Nov-19 23:00N 49°11' W 122°55'0 0.0
2017-Nov-19 22:30N 49°11' W 122°55'0 0.0
2017-Nov-19 22:00N 49°11' W 122°55'0 0.0
2017-Nov-19 21:30N 49°11' W 122°55'0 0.0
2017-Nov-19 21:00N 49°11' W 122°55'0 0.0
2017-Nov-19 20:30N 49°11' W 122°55'0 0.0
2017-Nov-19 20:00N 49°11' W 122°55'0 0.0
2017-Nov-19 19:30N 49°11' W 122°55'0 0.0
2017-Nov-19 19:00N 49°11' W 122°55'0 0.0
2017-Nov-19 18:30N 49°11' W 122°55'0 0.0
2017-Nov-19 18:00N 49°11' W 122°55'0 0.0
2017-Nov-19 17:27N 49°11' W 122°55'0 0.0
2017-Nov-19 17:00N 49°11' W 122°55'0 0.0
2017-Nov-19 16:30N 49°11' W 122°55'0 0.0
2017-Nov-19 16:00N 49°11' W 122°55'0 0.0
2017-Nov-19 15:30N 49°11' W 122°55'0 0.0
2017-Nov-19 15:00N 49°11' W 122°55'0 0.0
2017-Nov-19 14:30N 49°11' W 122°55'0 0.0
2017-Nov-19 14:00N 49°11' W 122°55'0 0.0
2017-Nov-19 13:27N 49°11' W 122°55'0 0.0
2017-Nov-19 13:00N 49°11' W 122°55'0 0.0
2017-Nov-19 12:30N 49°11' W 122°55'0 0.0
2017-Nov-19 12:00N 49°11' W 122°55'0 0.0
2017-Nov-19 11:30N 49°11' W 122°55'0 0.0
2017-Nov-19 11:00N 49°11' W 122°55'0 0.0
2017-Nov-19 10:30N 49°11' W 122°55'0 0.0
2017-Nov-19 09:57N 49°11' W 122°55'0 0.0
2017-Nov-19 09:30N 49°11' W 122°55'0 0.0
2017-Nov-19 09:00N 49°11' W 122°55'0 0.0
2017-Nov-19 08:30N 49°11' W 122°55'0 0.0
2017-Nov-19 08:00N 49°11' W 122°55'0 0.0
2017-Nov-19 07:30N 49°11' W 122°55'0 0.0
2017-Nov-19 07:00N 49°11' W 122°55'0 0.0
2017-Nov-19 06:30N 49°11' W 122°55'0 0.0
2017-Nov-19 06:00N 49°11' W 122°55'0 0.0
2017-Nov-19 05:30N 49°11' W 122°55'0 0.0
2017-Nov-19 04:57N 49°11' W 122°55'0 0.0
2017-Nov-19 04:30N 49°11' W 122°55'0 0.0
2017-Nov-19 04:00N 49°11' W 122°55'0 0.0
2017-Nov-19 03:30N 49°11' W 122°55'0 0.0
2017-Nov-19 03:00N 49°11' W 122°55'0 0.0
2017-Nov-19 02:30N 49°11' W 122°55'0 0.0
2017-Nov-19 02:00N 49°11' W 122°55'0 0.0
2017-Nov-19 01:30N 49°11' W 122°55'0 0.0
2017-Nov-19 01:00N 49°11' W 122°55'0 0.0
2017-Nov-19 00:30N 49°11' W 122°55'0 0.0
2017-Nov-19 00:00N 49°11' W 122°55'0 0.0
2017-Nov-18 23:30N 49°11' W 122°55'0 0.0
2017-Nov-18 23:00N 49°11' W 122°55'0 0.0
2017-Nov-18 22:30N 49°11' W 122°55'0 0.0
2017-Nov-18 22:00N 49°11' W 122°55'0 0.0
2017-Nov-18 21:30N 49°11' W 122°55'0 0.0
2017-Nov-18 20:57N 49°11' W 122°55'0 0.0
2017-Nov-18 20:30N 49°11' W 122°55'0 0.0
2017-Nov-18 20:00N 49°11' W 122°55'0 0.0
2017-Nov-18 19:30N 49°11' W 122°55'0 0.0
2017-Nov-18 18:57N 49°11' W 122°55'0 0.0
2017-Nov-18 18:30N 49°11' W 122°55'0 0.0
2017-Nov-18 18:00N 49°11' W 122°55'0 0.0
2017-Nov-18 17:30N 49°11' W 122°55'0 0.0
2017-Nov-18 17:00N 49°11' W 122°55'0 0.0
2017-Nov-18 16:30N 49°11' W 122°55'0 0.0
2017-Nov-18 16:00N 49°11' W 122°55'0 0.0
2017-Nov-18 15:30N 49°11' W 122°55'0 0.0
2017-Nov-18 15:00N 49°11' W 122°55'0 0.0
2017-Nov-18 14:30N 49°11' W 122°55'0 0.0
2017-Nov-18 14:00N 49°11' W 122°55'0 0.0
2017-Nov-18 13:27N 49°11' W 122°55'0 0.0
2017-Nov-18 13:00N 49°11' W 122°55'0 0.0
2017-Nov-18 12:30N 49°11' W 122°55'0 0.0
2017-Nov-18 12:00N 49°11' W 122°55'0 0.0
2017-Nov-18 11:30N 49°11' W 122°55'0 0.0
2017-Nov-18 11:00N 49°11' W 122°55'0 0.0
2017-Nov-18 10:30N 49°11' W 122°55'0 0.0
2017-Nov-18 10:00N 49°11' W 122°55'0 0.0
2017-Nov-18 09:24N 49°11' W 122°55'0 0.0
2017-Nov-18 09:00N 49°11' W 122°55'0 0.0
2017-Nov-18 08:30N 49°11' W 122°55'0 0.0
2017-Nov-18 08:00N 49°11' W 122°55'0 0.0
2017-Nov-18 07:27N 49°11' W 122°55'0 0.0
2017-Nov-18 07:00N 49°11' W 122°55'0 0.0
2017-Nov-18 06:30N 49°11' W 122°55'0 0.0
2017-Nov-18 06:00N 49°11' W 122°55'0 0.0
2017-Nov-18 05:30N 49°11' W 122°55'0 0.0
2017-Nov-18 05:00N 49°11' W 122°55'0 0.0
2017-Nov-18 04:30N 49°11' W 122°55'0 0.0
2017-Nov-18 04:00N 49°11' W 122°55'0 0.0
2017-Nov-18 03:30N 49°11' W 122°55'0 0.0
2017-Nov-18 03:00N 49°11' W 122°55'0 0.0
2017-Nov-18 02:30N 49°11' W 122°55'0 0.0
2017-Nov-18 02:00N 49°11' W 122°55'0 0.0
2017-Nov-18 01:30N 49°11' W 122°55'0 0.0
2017-Nov-18 01:00N 49°11' W 122°55'0 0.0
2017-Nov-18 00:30N 49°11' W 122°55'0 0.0
2017-Nov-18 00:00N 49°11' W 122°55'0 0.0
2017-Nov-17 23:30N 49°11' W 122°55'0 0.0
2017-Nov-17 23:00N 49°11' W 122°55'0 0.0
2017-Nov-17 22:30N 49°11' W 122°55'0 0.0
2017-Nov-17 22:00N 49°11' W 122°55'0 0.0
2017-Nov-17 21:30N 49°11' W 122°55'0 0.0
2017-Nov-17 21:00N 49°11' W 122°55'0 0.0
2017-Nov-17 20:27N 49°11' W 122°55'0 0.0
2017-Nov-17 19:57N 49°11' W 122°55'0 0.0
2017-Nov-17 19:27N 49°11' W 122°55'0 0.0
2017-Nov-17 18:54N 49°11' W 122°55'0 0.0
2017-Nov-17 18:27N 49°11' W 122°55'0 0.0
2017-Nov-17 18:00N 49°11' W 122°55'0 0.0
2017-Nov-17 17:30N 49°11' W 122°55'0 0.0
2017-Nov-17 17:00N 49°11' W 122°55'0 0.0
2017-Nov-17 16:30N 49°11' W 122°55'0 0.0
2017-Nov-17 16:00N 49°11' W 122°55'0 0.0
2017-Nov-17 15:30N 49°11' W 122°55'0 0.0
2017-Nov-17 14:57N 49°11' W 122°55'0 0.0
2017-Nov-17 14:30N 49°11' W 122°55'0 0.0
2017-Nov-17 14:00N 49°11' W 122°55'0 0.0
2017-Nov-17 13:30N 49°11' W 122°55'0 0.0
2017-Nov-17 13:00N 49°11' W 122°55'0 0.0
2017-Nov-17 12:27N 49°11' W 122°55'0 0.0
2017-Nov-17 11:57N 49°11' W 122°55'0 0.0
2017-Nov-17 11:21N 49°11' W 122°55'0 0.0
2017-Nov-17 11:00N 49°11' W 122°55'0 0.0
2017-Nov-17 10:27N 49°11' W 122°55'0 0.0
2017-Nov-17 10:00N 49°11' W 122°55'0 0.0
2017-Nov-17 09:30N 49°11' W 122°55'0 0.0
2017-Nov-17 08:57N 49°11' W 122°55'0 0.0
2017-Nov-17 08:30N 49°11' W 122°55'0 0.0
2017-Nov-17 07:57N 49°11' W 122°55'0 0.0
2017-Nov-17 07:27N 49°11' W 122°55'0 0.0
2017-Nov-17 07:00N 49°11' W 122°55'0 0.0
2017-Nov-17 06:30N 49°11' W 122°55'0 0.0
2017-Nov-17 06:00N 49°11' W 122°55'0 0.0
2017-Nov-17 05:27N 49°11' W 122°55'0 0.0
2017-Nov-17 04:57N 49°11' W 122°55'0 0.0
2017-Nov-17 04:27N 49°11' W 122°55'0 0.0
2017-Nov-17 04:00N 49°11' W 122°55'0 0.0
2017-Nov-17 03:30N 49°11' W 122°55'0 0.0
2017-Nov-17 03:00N 49°11' W 122°55'0 0.0
2017-Nov-17 02:30N 49°11' W 122°55'0 0.0
2017-Nov-17 01:57N 49°11' W 122°55'0 0.0
2017-Nov-17 01:30N 49°11' W 122°55'0 0.0
2017-Nov-17 01:00N 49°11' W 122°55'0 0.0
2017-Nov-17 00:27N 49°11' W 122°55'0 0.0
2017-Nov-17 00:00N 49°11' W 122°55'0 0.0
2017-Nov-16 23:30N 49°11' W 122°55'0 0.0
2017-Nov-16 23:00N 49°11' W 122°55'0 0.0
2017-Nov-16 22:27N 49°11' W 122°55'0 0.0
2017-Nov-16 21:57N 49°11' W 122°55'0 0.0
2017-Nov-16 21:30N 49°11' W 122°55'0 0.0
2017-Nov-16 21:00N 49°11' W 122°55'0 0.0
2017-Nov-16 20:30N 49°11' W 122°55'0 0.0
2017-Nov-16 20:00N 49°11' W 122°55'0 0.0
2017-Nov-16 19:27N 49°11' W 122°55'0 0.0
2017-Nov-16 18:57N 49°11' W 122°55'0 0.0
2017-Nov-16 18:30N 49°11' W 122°55'0 0.0
2017-Nov-16 17:57N 49°11' W 122°55'0 0.0
2017-Nov-16 17:27N 49°11' W 122°55'0 0.0
2017-Nov-16 16:57N 49°11' W 122°55'0 0.0
2017-Nov-16 16:24N 49°11' W 122°55'0 0.0
2017-Nov-16 15:57N 49°11' W 122°55'0 0.0
2017-Nov-16 15:27N 49°11' W 122°55'0 0.0
2017-Nov-16 14:57N 49°11' W 122°55'0 0.0
2017-Nov-16 14:27N 49°11' W 122°55'0 0.0
2017-Nov-16 13:45N 49°11' W 122°55'0 0.0
2017-Nov-16 13:27N 49°11' W 122°55'0 0.0
2017-Nov-16 12:57N 49°11' W 122°55'0 0.0
2017-Nov-16 12:15N 49°11' W 122°55'0 0.0
2017-Nov-16 11:57N 49°11' W 122°55'0 0.0
2017-Nov-16 11:27N 49°11' W 122°55'0 0.0
2017-Nov-16 10:57N 49°11' W 122°55'0 0.0
2017-Nov-16 10:27N 49°11' W 122°55'0 0.0
2017-Nov-16 09:57N 49°11' W 122°55'0 0.0
2017-Nov-16 09:27N 49°11' W 122°55'0 0.0
2017-Nov-16 08:57N 49°11' W 122°55'0 0.0
2017-Nov-16 08:27N 49°11' W 122°55'0 0.0
2017-Nov-16 07:57N 49°11' W 122°55'0 0.0
2017-Nov-16 07:27N 49°11' W 122°55'0 0.0
2017-Nov-16 06:57N 49°11' W 122°55'0 0.0
2017-Nov-16 06:27N 49°11' W 122°55'0 0.0
2017-Nov-16 06:00N 49°11' W 122°55'0 0.0
2017-Nov-16 05:30N 49°11' W 122°55'0 0.0
2017-Nov-16 05:00N 49°11' W 122°55'0 0.0
2017-Nov-16 04:27N 49°11' W 122°55'0 0.0
2017-Nov-16 04:00N 49°11' W 122°55'0 0.0
2017-Nov-16 03:27N 49°11' W 122°55'0 0.0
2017-Nov-16 02:03N 49°11' W 122°55'0 0.0
2017-Nov-16 01:09N 49°11' W 122°55'0 0.0
2017-Nov-16 00:51N 49°11' W 122°55'0 0.0
2017-Nov-16 00:27N 49°11' W 122°55'0 0.0
2017-Nov-15 23:57N 49°11' W 122°55'0 0.0
2017-Nov-15 23:27N 49°11' W 122°55'0 0.0
2017-Nov-15 22:57N 49°11' W 122°55'0 0.0
2017-Nov-15 22:27N 49°11' W 122°55'0 0.0
2017-Nov-15 22:00N 49°11' W 122°55'0 0.0
2017-Nov-15 19:54N 49°11' W 122°55'0 0.0
2017-Nov-15 19:27N 49°11' W 122°55'0 0.0
2017-Nov-15 17:45N 49°11' W 122°55'0 0.0
2017-Nov-15 17:21N 49°11' W 122°55'0 0.0
2017-Nov-15 16:57N 49°11' W 122°55'0 0.0
2017-Nov-15 14:45N 49°11' W 122°55'0 0.0
2017-Nov-15 14:21N 49°11' W 122°55'0 0.0
2017-Nov-15 12:27N 49°11' W 122°55'0 0.0
2017-Nov-15 11:39N 49°11' W 122°55'0 0.0
2017-Nov-15 11:15N 49°11' W 122°55'0 0.0
2017-Nov-15 10:57N 49°11' W 122°55'0 0.0
2017-Nov-15 09:51N 49°11' W 122°55'0 0.0
2017-Nov-15 09:15N 49°11' W 122°55'0 0.0
2017-Nov-15 08:51N 49°11' W 122°55'0 0.0
2017-Nov-15 08:21N 49°11' W 122°55'0 0.0
2017-Nov-15 07:51N 49°11' W 122°55'0 0.0
2017-Nov-15 07:27N 49°11' W 122°55'0 0.0
2017-Nov-15 06:09N 49°11' W 122°55'0 0.0
2017-Nov-15 05:57N 49°11' W 122°55'0 0.0
2017-Nov-15 05:27N 49°11' W 122°55'0 0.0
2017-Nov-15 04:03N 49°11' W 122°55'0 0.0
2017-Nov-15 03:33N 49°11' W 122°55'0 0.0
2017-Nov-14 23:09N 49°11' W 122°55'0 0.0
2017-Nov-14 22:51N 49°11' W 122°55'0 0.0
2017-Nov-14 20:03N 49°11' W 122°55'0 0.0
2017-Nov-14 20:00N 49°11' W 122°55'0 0.0
2017-Nov-14 16:33N 49°11' W 122°55'0 0.0
2017-Nov-14 16:15N 49°11' W 122°55'0 0.0
2017-Nov-14 15:45N 49°11' W 122°55'0 0.0
2017-Nov-14 15:27N 49°11' W 122°55'0 0.0
2017-Nov-14 14:39N 49°11' W 122°55'0 0.0
2017-Nov-14 13:09N 49°11' W 122°55'0 0.0
2017-Nov-14 12:51N 49°11' W 122°55'0 0.0
2017-Nov-14 07:49N 49°11' W 122°55'0 0.6
2017-Nov-14 07:29N 49°11' W 122°55'2 4.1
2017-Nov-14 07:00N 49°10' W 122°57'4 9.2
2017-Nov-14 06:30N 49°08' W 123°03'510.2
2017-Nov-14 06:00N 49°07' W 123°11'5 9.4
2017-Nov-14 05:30N 49°06' W 123°18'3 6.5
2017-Nov-14 05:00N 49°03' W 123°19'612.2
2017-Nov-14 04:30N 48°59' W 123°13'713.7
2017-Nov-14 04:00N 48°54' W 123°05'713.3
2017-Nov-14 03:30N 48°49' W 123°00'612.5
2017-Nov-14 03:00N 48°44' W 123°07'612.0
2017-Nov-14 02:31N 48°41' W 123°15'612.9
2017-Nov-14 02:01N 48°35' W 123°13'612.9
2017-Nov-14 01:31N 48°28' W 123°10'510.8
2017-Nov-14 01:00N 48°24' W 123°14'510.0
2017-Nov-14 00:30N 48°22' W 123°21'4 7.6
2017-Nov-14 00:01N 48°19' W 123°25'  
Track history (hours):
 
Tides and Currents Weather Stations Pressure Air Temp Water Temp Dewpoint Dewpoint Depression Visibility Wind Speed Wind Dir Waves Ship Positions

Dream Island

Last reported at 2017-Nov-23 23:54 UTC. Time now 2017-Dec-13 07:16 UTC.
Position N 49°11' W 126°36'.
Warning: this ship's position is 19 days out of date.

Length 180 m; draft 10.6 m.

Type: Cargo ship. MMSI: 374721000.

Date/timePositionNaut miles runAvg speedWind from/ knotsBaromVisibWave heightAir tempDewpointWater temp
2017-Nov-23 23:54N 49°11' W 126°36'410.4
2017-Nov-23 23:30N 49°08' W 126°31'510.7
2017-Nov-23 23:00N 49°05' W 126°25'510.8
2017-Nov-23 22:30N 49°01' W 126°20'4 8.8
2017-Nov-23 22:00N 48°60' W 126°13'5 9.7
2017-Nov-23 21:30N 48°58' W 126°06'5 9.6
2017-Nov-23 21:00N 48°56' W 125°60'4 9.0
2017-Nov-23 20:30N 48°55' W 125°53'5 9.2
2017-Nov-23 20:00N 48°54' W 125°46'5 9.1
2017-Nov-23 19:30N 48°52' W 125°40'5 9.5
2017-Nov-23 19:00N 48°50' W 125°33'510.1
2017-Nov-23 18:30N 48°47' W 125°27'510.3
2017-Nov-23 18:00N 48°44' W 125°21'510.2
2017-Nov-23 17:30N 48°41' W 125°15'510.7
2017-Nov-23 17:00N 48°38' W 125°08'510.7
2017-Nov-23 16:30N 48°35' W 125°02'510.4
2017-Nov-23 16:00N 48°31' W 124°55'4 8.7
2017-Nov-23 15:30N 48°31' W 124°49'4 8.1
2017-Nov-23 15:00N 48°30' W 124°43'4 8.1
2017-Nov-23 14:30N 48°29' W 124°37'4 7.7
2017-Nov-23 14:00N 48°27' W 124°32'4 8.2
2017-Nov-23 13:30N 48°26' W 124°26'4 9.0
2017-Nov-23 13:00N 48°24' W 124°20'5 9.2
2017-Nov-23 12:30N 48°22' W 124°13'5 9.0
2017-Nov-23 12:00N 48°20' W 124°07'5 9.6
2017-Nov-23 11:30N 48°19' W 124°00'5 9.6
2017-Nov-23 10:59N 48°17' W 123°53'4 9.3
2017-Nov-23 10:30N 48°16' W 123°47'5 9.8
2017-Nov-23 10:00N 48°16' W 123°39'510.6
2017-Nov-23 09:30N 48°15' W 123°31'510.4
2017-Nov-23 09:00N 48°20' W 123°27'4 8.9
2017-Nov-23 08:30N 48°23' W 123°23'4 8.0
2017-Nov-23 08:00N 48°23' W 123°17'612.1
2017-Nov-23 07:30N 48°28' W 123°12'815.4
2017-Nov-23 07:00N 48°36' W 123°14'713.7
2017-Nov-23 06:30N 48°43' W 123°14'714.7
2017-Nov-23 06:00N 48°46' W 123°04'510.4
2017-Nov-23 05:30N 48°51' W 123°03'815.0
2017-Nov-23 04:58N 48°57' W 123°12'714.1
2017-Nov-23 04:29N 49°01' W 123°20'5 9.5
2017-Nov-23 04:00N 49°06' W 123°19'5 9.8
2017-Nov-23 03:30N 49°08' W 123°12'611.3
2017-Nov-23 03:00N 49°08' W 123°04'510.2
2017-Nov-23 02:30N 49°10' W 122°56'2 3.7
2017-Nov-23 02:00N 49°11' W 122°55'0 0.4
2017-Nov-23 01:30N 49°11' W 122°55'0 0.0
2017-Nov-23 01:00N 49°11' W 122°55'0 0.0
2017-Nov-23 00:30N 49°11' W 122°55'0 0.0
2017-Nov-22 23:57N 49°11' W 122°55'0 0.0
2017-Nov-22 23:30N 49°11' W 122°55'0 0.0
2017-Nov-22 23:00N 49°11' W 122°55'0 0.0
2017-Nov-22 22:30N 49°11' W 122°55'0 0.0
2017-Nov-22 22:00N 49°11' W 122°55'0 0.0
2017-Nov-22 21:30N 49°11' W 122°55'0 0.0
2017-Nov-22 21:00N 49°11' W 122°55'0 0.0
2017-Nov-22 20:30N 49°11' W 122°55'0 0.0
2017-Nov-22 20:00N 49°11' W 122°55'0 0.0
2017-Nov-22 19:30N 49°11' W 122°55'  
2017-Nov-20 00:30N 49°11' W 122°55'0 0.0
2017-Nov-20 00:00N 49°11' W 122°55'0 0.0
2017-Nov-19 23:30N 49°11' W 122°55'0 0.0
2017-Nov-19 23:00N 49°11' W 122°55'0 0.0
2017-Nov-19 22:30N 49°11' W 122°55'0 0.0
2017-Nov-19 22:00N 49°11' W 122°55'0 0.0
2017-Nov-19 21:30N 49°11' W 122°55'0 0.0
2017-Nov-19 21:00N 49°11' W 122°55'0 0.0
2017-Nov-19 20:30N 49°11' W 122°55'0 0.0
2017-Nov-19 20:00N 49°11' W 122°55'0 0.0
2017-Nov-19 19:30N 49°11' W 122°55'0 0.0
2017-Nov-19 19:00N 49°11' W 122°55'0 0.0
2017-Nov-19 18:30N 49°11' W 122°55'0 0.0
2017-Nov-19 18:00N 49°11' W 122°55'0 0.0
2017-Nov-19 17:27N 49°11' W 122°55'0 0.0
2017-Nov-19 17:00N 49°11' W 122°55'0 0.0
2017-Nov-19 16:30N 49°11' W 122°55'0 0.0
2017-Nov-19 16:00N 49°11' W 122°55'0 0.0
2017-Nov-19 15:30N 49°11' W 122°55'0 0.0
2017-Nov-19 15:00N 49°11' W 122°55'0 0.0
2017-Nov-19 14:30N 49°11' W 122°55'0 0.0
2017-Nov-19 14:00N 49°11' W 122°55'0 0.0
2017-Nov-19 13:27N 49°11' W 122°55'0 0.0
2017-Nov-19 13:00N 49°11' W 122°55'0 0.0
2017-Nov-19 12:30N 49°11' W 122°55'0 0.0
2017-Nov-19 12:00N 49°11' W 122°55'0 0.0
2017-Nov-19 11:30N 49°11' W 122°55'0 0.0
2017-Nov-19 11:00N 49°11' W 122°55'0 0.0
2017-Nov-19 10:30N 49°11' W 122°55'0 0.0
2017-Nov-19 09:57N 49°11' W 122°55'0 0.0
2017-Nov-19 09:30N 49°11' W 122°55'0 0.0
2017-Nov-19 09:00N 49°11' W 122°55'0 0.0
2017-Nov-19 08:30N 49°11' W 122°55'0 0.0
2017-Nov-19 08:00N 49°11' W 122°55'0 0.0
2017-Nov-19 07:30N 49°11' W 122°55'0 0.0
2017-Nov-19 07:00N 49°11' W 122°55'0 0.0
2017-Nov-19 06:30N 49°11' W 122°55'0 0.0
2017-Nov-19 06:00N 49°11' W 122°55'0 0.0
2017-Nov-19 05:30N 49°11' W 122°55'0 0.0
2017-Nov-19 04:57N 49°11' W 122°55'0 0.0
2017-Nov-19 04:30N 49°11' W 122°55'0 0.0
2017-Nov-19 04:00N 49°11' W 122°55'0 0.0
2017-Nov-19 03:30N 49°11' W 122°55'0 0.0
2017-Nov-19 03:00N 49°11' W 122°55'0 0.0
2017-Nov-19 02:30N 49°11' W 122°55'0 0.0
2017-Nov-19 02:00N 49°11' W 122°55'0 0.0
2017-Nov-19 01:30N 49°11' W 122°55'0 0.0
2017-Nov-19 01:00N 49°11' W 122°55'0 0.0
2017-Nov-19 00:30N 49°11' W 122°55'0 0.0
2017-Nov-19 00:00N 49°11' W 122°55'0 0.0
2017-Nov-18 23:30N 49°11' W 122°55'0 0.0
2017-Nov-18 23:00N 49°11' W 122°55'0 0.0
2017-Nov-18 22:30N 49°11' W 122°55'0 0.0
2017-Nov-18 22:00N 49°11' W 122°55'0 0.0
2017-Nov-18 21:30N 49°11' W 122°55'0 0.0
2017-Nov-18 20:57N 49°11' W 122°55'0 0.0
2017-Nov-18 20:30N 49°11' W 122°55'0 0.0
2017-Nov-18 20:00N 49°11' W 122°55'0 0.0
2017-Nov-18 19:30N 49°11' W 122°55'0 0.0
2017-Nov-18 18:57N 49°11' W 122°55'0 0.0
2017-Nov-18 18:30N 49°11' W 122°55'0 0.0
2017-Nov-18 18:00N 49°11' W 122°55'0 0.0
2017-Nov-18 17:30N 49°11' W 122°55'0 0.0
2017-Nov-18 17:00N 49°11' W 122°55'0 0.0
2017-Nov-18 16:30N 49°11' W 122°55'0 0.0
2017-Nov-18 16:00N 49°11' W 122°55'0 0.0
2017-Nov-18 15:30N 49°11' W 122°55'0 0.0
2017-Nov-18 15:00N 49°11' W 122°55'0 0.0
2017-Nov-18 14:30N 49°11' W 122°55'0 0.0
2017-Nov-18 14:00N 49°11' W 122°55'0 0.0
2017-Nov-18 13:27N 49°11' W 122°55'0 0.0
2017-Nov-18 13:00N 49°11' W 122°55'0 0.0
2017-Nov-18 12:30N 49°11' W 122°55'0 0.0
2017-Nov-18 12:00N 49°11' W 122°55'0 0.0
2017-Nov-18 11:30N 49°11' W 122°55'0 0.0
2017-Nov-18 11:00N 49°11' W 122°55'0 0.0
2017-Nov-18 10:30N 49°11' W 122°55'0 0.0
2017-Nov-18 10:00N 49°11' W 122°55'0 0.0
2017-Nov-18 09:24N 49°11' W 122°55'0 0.0
2017-Nov-18 09:00N 49°11' W 122°55'0 0.0
2017-Nov-18 08:30N 49°11' W 122°55'0 0.0
2017-Nov-18 08:00N 49°11' W 122°55'0 0.0
2017-Nov-18 07:27N 49°11' W 122°55'0 0.0
2017-Nov-18 07:00N 49°11' W 122°55'0 0.0
2017-Nov-18 06:30N 49°11' W 122°55'0 0.0
2017-Nov-18 06:00N 49°11' W 122°55'0 0.0
2017-Nov-18 05:30N 49°11' W 122°55'0 0.0
2017-Nov-18 05:00N 49°11' W 122°55'0 0.0
2017-Nov-18 04:30N 49°11' W 122°55'0 0.0
2017-Nov-18 04:00N 49°11' W 122°55'0 0.0
2017-Nov-18 03:30N 49°11' W 122°55'0 0.0
2017-Nov-18 03:00N 49°11' W 122°55'0 0.0
2017-Nov-18 02:30N 49°11' W 122°55'0 0.0
2017-Nov-18 02:00N 49°11' W 122°55'0 0.0
2017-Nov-18 01:30N 49°11' W 122°55'0 0.0
2017-Nov-18 01:00N 49°11' W 122°55'0 0.0
2017-Nov-18 00:30N 49°11' W 122°55'0 0.0
2017-Nov-18 00:00N 49°11' W 122°55'0 0.0
2017-Nov-17 23:30N 49°11' W 122°55'0 0.0
2017-Nov-17 23:00N 49°11' W 122°55'0 0.0
2017-Nov-17 22:30N 49°11' W 122°55'0 0.0
2017-Nov-17 22:00N 49°11' W 122°55'0 0.0
2017-Nov-17 21:30N 49°11' W 122°55'0 0.0
2017-Nov-17 21:00N 49°11' W 122°55'0 0.0
2017-Nov-17 20:27N 49°11' W 122°55'0 0.0
2017-Nov-17 19:57N 49°11' W 122°55'0 0.0
2017-Nov-17 19:27N 49°11' W 122°55'0 0.0
2017-Nov-17 18:54N 49°11' W 122°55'0 0.0
2017-Nov-17 18:27N 49°11' W 122°55'0 0.0
2017-Nov-17 18:00N 49°11' W 122°55'0 0.0
2017-Nov-17 17:30N 49°11' W 122°55'0 0.0
2017-Nov-17 17:00N 49°11' W 122°55'0 0.0
2017-Nov-17 16:30N 49°11' W 122°55'0 0.0
2017-Nov-17 16:00N 49°11' W 122°55'0 0.0
2017-Nov-17 15:30N 49°11' W 122°55'0 0.0
2017-Nov-17 14:57N 49°11' W 122°55'0 0.0
2017-Nov-17 14:30N 49°11' W 122°55'0 0.0
2017-Nov-17 14:00N 49°11' W 122°55'0 0.0
2017-Nov-17 13:30N 49°11' W 122°55'0 0.0
2017-Nov-17 13:00N 49°11' W 122°55'0 0.0
2017-Nov-17 12:27N 49°11' W 122°55'0 0.0
2017-Nov-17 11:57N 49°11' W 122°55'0 0.0
2017-Nov-17 11:21N 49°11' W 122°55'0 0.0
2017-Nov-17 11:00N 49°11' W 122°55'0 0.0
2017-Nov-17 10:27N 49°11' W 122°55'0 0.0
2017-Nov-17 10:00N 49°11' W 122°55'0 0.0
2017-Nov-17 09:30N 49°11' W 122°55'0 0.0
2017-Nov-17 08:57N 49°11' W 122°55'0 0.0
2017-Nov-17 08:30N 49°11' W 122°55'0 0.0
2017-Nov-17 07:57N 49°11' W 122°55'0 0.0
2017-Nov-17 07:27N 49°11' W 122°55'0 0.0
2017-Nov-17 07:00N 49°11' W 122°55'0 0.0
2017-Nov-17 06:30N 49°11' W 122°55'0 0.0
2017-Nov-17 06:00N 49°11' W 122°55'0 0.0
2017-Nov-17 05:27N 49°11' W 122°55'0 0.0
2017-Nov-17 04:57N 49°11' W 122°55'0 0.0
2017-Nov-17 04:27N 49°11' W 122°55'0 0.0
2017-Nov-17 04:00N 49°11' W 122°55'0 0.0
2017-Nov-17 03:30N 49°11' W 122°55'0 0.0
2017-Nov-17 03:00N 49°11' W 122°55'0 0.0
2017-Nov-17 02:30N 49°11' W 122°55'0 0.0
2017-Nov-17 01:57N 49°11' W 122°55'0 0.0
2017-Nov-17 01:30N 49°11' W 122°55'0 0.0
2017-Nov-17 01:00N 49°11' W 122°55'0 0.0
2017-Nov-17 00:27N 49°11' W 122°55'0 0.0
2017-Nov-17 00:00N 49°11' W 122°55'0 0.0
2017-Nov-16 23:30N 49°11' W 122°55'0 0.0
2017-Nov-16 23:00N 49°11' W 122°55'0 0.0
2017-Nov-16 22:27N 49°11' W 122°55'0 0.0
2017-Nov-16 21:57N 49°11' W 122°55'0 0.0
2017-Nov-16 21:30N 49°11' W 122°55'0 0.0
2017-Nov-16 21:00N 49°11' W 122°55'0 0.0
2017-Nov-16 20:30N 49°11' W 122°55'0 0.0
2017-Nov-16 20:00N 49°11' W 122°55'0 0.0
2017-Nov-16 19:27N 49°11' W 122°55'0 0.0
2017-Nov-16 18:57N 49°11' W 122°55'0 0.0
2017-Nov-16 18:30N 49°11' W 122°55'0 0.0
2017-Nov-16 17:57N 49°11' W 122°55'0 0.0
2017-Nov-16 17:27N 49°11' W 122°55'0 0.0
2017-Nov-16 16:57N 49°11' W 122°55'0 0.0
2017-Nov-16 16:24N 49°11' W 122°55'0 0.0
2017-Nov-16 15:57N 49°11' W 122°55'0 0.0
2017-Nov-16 15:27N 49°11' W 122°55'0 0.0
2017-Nov-16 14:57N 49°11' W 122°55'0 0.0
2017-Nov-16 14:27N 49°11' W 122°55'0 0.0
2017-Nov-16 13:45N 49°11' W 122°55'0 0.0
2017-Nov-16 13:27N 49°11' W 122°55'0 0.0
2017-Nov-16 12:57N 49°11' W 122°55'0 0.0
2017-Nov-16 12:15N 49°11' W 122°55'0 0.0
2017-Nov-16 11:57N 49°11' W 122°55'0 0.0
2017-Nov-16 11:27N 49°11' W 122°55'0 0.0
2017-Nov-16 10:57N 49°11' W 122°55'0 0.0
2017-Nov-16 10:27N 49°11' W 122°55'0 0.0
2017-Nov-16 09:57N 49°11' W 122°55'0 0.0
2017-Nov-16 09:27N 49°11' W 122°55'0 0.0
2017-Nov-16 08:57N 49°11' W 122°55'0 0.0
2017-Nov-16 08:27N 49°11' W 122°55'0 0.0
2017-Nov-16 07:57N 49°11' W 122°55'0 0.0
2017-Nov-16 07:27N 49°11' W 122°55'0 0.0
2017-Nov-16 06:57N 49°11' W 122°55'0 0.0
2017-Nov-16 06:27N 49°11' W 122°55'0 0.0
2017-Nov-16 06:00N 49°11' W 122°55'0 0.0
2017-Nov-16 05:30N 49°11' W 122°55'0 0.0
2017-Nov-16 05:00N 49°11' W 122°55'0 0.0
2017-Nov-16 04:27N 49°11' W 122°55'0 0.0
2017-Nov-16 04:00N 49°11' W 122°55'0 0.0
2017-Nov-16 03:27N 49°11' W 122°55'0 0.0
2017-Nov-16 02:03N 49°11' W 122°55'0 0.0
2017-Nov-16 01:09N 49°11' W 122°55'0 0.0
2017-Nov-16 00:51N 49°11' W 122°55'0 0.0
2017-Nov-16 00:27N 49°11' W 122°55'0 0.0
2017-Nov-15 23:57N 49°11' W 122°55'0 0.0
2017-Nov-15 23:27N 49°11' W 122°55'0 0.0
2017-Nov-15 22:57N 49°11' W 122°55'0 0.0
2017-Nov-15 22:27N 49°11' W 122°55'0 0.0
2017-Nov-15 22:00N 49°11' W 122°55'0 0.0
2017-Nov-15 19:54N 49°11' W 122°55'0 0.0
2017-Nov-15 19:27N 49°11' W 122°55'0 0.0
2017-Nov-15 17:45N 49°11' W 122°55'0 0.0
2017-Nov-15 17:21N 49°11' W 122°55'0 0.0
2017-Nov-15 16:57N 49°11' W 122°55'0 0.0
2017-Nov-15 14:45N 49°11' W 122°55'0 0.0
2017-Nov-15 14:21N 49°11' W 122°55'0 0.0
2017-Nov-15 12:27N 49°11' W 122°55'0 0.0
2017-Nov-15 11:39N 49°11' W 122°55'0 0.0
2017-Nov-15 11:15N 49°11' W 122°55'0 0.0
2017-Nov-15 10:57N 49°11' W 122°55'0 0.0
2017-Nov-15 09:51N 49°11' W 122°55'0 0.0
2017-Nov-15 09:15N 49°11' W 122°55'0 0.0
2017-Nov-15 08:51N 49°11' W 122°55'0 0.0
2017-Nov-15 08:21N 49°11' W 122°55'0 0.0
2017-Nov-15 07:51N 49°11' W 122°55'0 0.0
2017-Nov-15 07:27N 49°11' W 122°55'0 0.0
2017-Nov-15 06:09N 49°11' W 122°55'0 0.0
2017-Nov-15 05:57N 49°11' W 122°55'0 0.0
2017-Nov-15 05:27N 49°11' W 122°55'0 0.0
2017-Nov-15 04:03N 49°11' W 122°55'0 0.0
2017-Nov-15 03:33N 49°11' W 122°55'0 0.0
2017-Nov-14 23:09N 49°11' W 122°55'0 0.0
2017-Nov-14 22:51N 49°11' W 122°55'0 0.0
2017-Nov-14 20:03N 49°11' W 122°55'0 0.0
2017-Nov-14 20:00N 49°11' W 122°55'0 0.0
2017-Nov-14 16:33N 49°11' W 122°55'0 0.0
2017-Nov-14 16:15N 49°11' W 122°55'0 0.0
2017-Nov-14 15:45N 49°11' W 122°55'0 0.0
2017-Nov-14 15:27N 49°11' W 122°55'0 0.0
2017-Nov-14 14:39N 49°11' W 122°55'0 0.0
2017-Nov-14 13:09N 49°11' W 122°55'0 0.0
2017-Nov-14 12:51N 49°11' W 122°55'0 0.0
2017-Nov-14 07:49N 49°11' W 122°55'0 0.6
2017-Nov-14 07:29N 49°11' W 122°55'2 4.1
2017-Nov-14 07:00N 49°10' W 122°57'4 9.2
2017-Nov-14 06:30N 49°08' W 123°03'510.2
2017-Nov-14 06:00N 49°07' W 123°11'5 9.4
2017-Nov-14 05:30N 49°06' W 123°18'3 6.5
2017-Nov-14 05:00N 49°03' W 123°19'612.2
2017-Nov-14 04:30N 48°59' W 123°13'713.7
2017-Nov-14 04:00N 48°54' W 123°05'713.3
2017-Nov-14 03:30N 48°49' W 123°00'612.5
2017-Nov-14 03:00N 48°44' W 123°07'612.0
2017-Nov-14 02:31N 48°41' W 123°15'612.9
2017-Nov-14 02:01N 48°35' W 123°13'612.9
2017-Nov-14 01:31N 48°28' W 123°10'510.8
2017-Nov-14 01:00N 48°24' W 123°14'510.0
2017-Nov-14 00:30N 48°22' W 123°21'4 7.6
2017-Nov-14 00:01N 48°19' W 123°25'  

Dump ship's entire track history